Aktualna pogoda na lotniskach (dane METAR)

 

EPGD - Gdansk/Rebiechow, Poland
Distance from station: ENE 44km
Updated: Tue, 11-Dec-2018 21:30 CET
Light rain, Showers, Mostly cloudy
Light rain, Showers, Mostly cloudy
 Wind from N
Wiatr: N 6 km/h
Temperatura: 2°C
Punkt Rosy: 1°C
Wilgotność: 93%
Ciśnienie: 1016 hPa
Ogólnie: Light rain, Showers
Zachmurzenie: Mostly Cloudy
Widzialność: 10 km
Szczegóły zachm.: Few Clouds 183 m
Mostly Cloudy 427 m
2018/12/11 20:30 EPGD 112030Z 36003KT 330V090 9999 -SHRA FEW006 BKN014 02/01 Q1016
EPSC - Szczecin/Golenio, Poland
Distance from station: WSW 205km
Updated: Tue, 11-Dec-2018 21:30 CET
Mostly Cloudy
Mostly Cloudy
 Wind from NNW
Wiatr: NNW 9 km/h
Temperatura: 3°C
Indeks Wychł.: 0°C
Punkt Rosy: 3°C
Wilgotność: 100%
Ciśnienie: 1016 hPa
Zachmurzenie: Mostly Cloudy
Widzialność: 10 km
Szczegóły zachm.: Few Clouds 91 m
Partly Cloudy 305 m
Mostly Cloudy 701 m
2018/12/11 20:30 EPSC 112030Z 33005KT 260V030 9999 FEW003 SCT010 BKN023 03/03 Q1016
 
EPPO - Poznan/Lawica, Poland
Distance from station: SSW 210km
Updated: Tue, 11-Dec-2018 21:30 CET
Overcast
Overcast
 Wind from NNW
Wiatr: NNW 11 km/h
Temperatura: 2°C
Indeks Wychł.: -1°C
Punkt Rosy: 2°C
Wilgotność: 100%
Ciśnienie: 1015 hPa
Zachmurzenie: Overcast
Widzialność: 10 km
Szczegóły zachm.: Overcast 183 m
2018/12/11 20:30 EPPO 112030Z 34006KT 9999 OVC006 02/02 Q1015 R10/29//95
EPLL - Lodz/Lublinek, Poland
Distance from station: SSE 296km
Updated: Tue, 11-Dec-2018 21:30 CET
Overcast
Overcast
 Wind from ENE
Wiatr: ENE 9 km/h
Temperatura: 1°C
Indeks Wychł.: -2°C
Punkt Rosy: 1°C
Wilgotność: 100%
Ciśnienie: 1013 hPa
Zachmurzenie: Overcast
Widzialność: 6 km
Szczegóły zachm.: Few Clouds 244 m
Partly Cloudy 335 m
Overcast 396 m
2018/12/11 20:30 EPLL 112030Z 06005KT 6000 FEW008 SCT011 OVC013 01/01 Q1013
 
EPWA - Warsaw/Okecie, Poland
Distance from station: SE 307km
Updated: Tue, 11-Dec-2018 21:30 CET
Few Clouds
Few Clouds
 Wind from E
Wiatr: E 7 km/h
Temperatura: 2°C
Indeks Wychł.: 0°C
Punkt Rosy: 0°C
Wilgotność: 87%
Ciśnienie: 1014 hPa
Zachmurzenie: Few Clouds
Widzialność: 10 km
Szczegóły zachm.: Few Clouds 671 m
2018/12/11 20:30 EPWA 112030Z 09004KT 9999 FEW022 02/00 Q1014 NOSIG
EPWR - Wroclaw/Strachow, Poland
Distance from station: S 352km
Updated: Tue, 11-Dec-2018 21:30 CET
Light rain, Mostly cloudy
Light rain, Mostly cloudy
 Wind from WNW
Wiatr: WNW 19 km/h
Temperatura: 2°C
Indeks Wychł.: -2°C
Punkt Rosy: 1°C
Wilgotność: 93%
Ciśnienie: 1015 hPa
Ogólnie: Light Rain
Zachmurzenie: Mostly Cloudy
Widzialność: 10 km
Szczegóły zachm.: Partly Cloudy 183 m
Mostly Cloudy 274 m
2018/12/11 20:30 EPWR 112030Z 30010KT 9999 -RA SCT006 BKN009 02/01 Q1015

Metar display script from Saratoga-Weather.org